Time;durP1;ratioP1;P1;durP2;ratioP2;P2;SDS_P1;SDS_P2;PMS_P1;PMS_P2;Temp;Humidity;BMP_temperature;BMP_pressure;BME280_temperature;BME280_humidity;BME280_pressure;Samples;Min_cycle;Max_cycle;Signal;HPM_P1;HPM_P2
2022/02/05 00:02:44;;;;;;;9.98;4.93;;;6.00;75.10;;;;;;5020585;28;20116;-76
2022/02/05 00:05:13;;;;;;;13.43;5.30;;;6.10;75.10;;;;;;5018172;28;20022;-76
2022/02/05 00:07:45;;;;;;;10.55;5.32;;;6.10;75.20;;;;;;5021853;28;20017;-76
2022/02/05 00:40:40;;;;;;;8.95;5.22;;;5.90;75.70;;;;;;5038386;28;20052;-76
2022/02/05 00:43:02;;;;;;;11.32;5.72;;;6.00;75.60;;;;;;5037936;28;20037;-76
2022/02/05 00:45:31;;;;;;;8.63;4.97;;;6.00;75.60;;;;;;5038303;28;20099;-76
2022/02/05 00:47:59;;;;;;;17.30;5.57;;;5.90;75.70;;;;;;5038089;28;20132;-76
2022/02/05 00:50:27;;;;;;;11.18;5.03;;;5.90;75.90;;;;;;5038229;28;20033;-76
2022/02/05 00:53:22;;;;;;;14.02;4.40;;;5.80;76.00;;;;;;5037866;28;20502;-76
2022/02/05 00:55:50;;;;;;;9.65;5.05;;;5.80;76.20;;;;;;5037908;28;20030;-76
2022/02/05 00:58:15;;;;;;;13.00;4.75;;;5.80;76.20;;;;;;5036736;28;20041;-75
2022/02/05 01:00:41;;;;;;;9.82;4.53;;;5.70;76.60;;;;;;5037591;28;20045;-76
2022/02/05 01:03:06;;;;;;;8.98;4.47;;;5.70;76.60;;;;;;5036582;28;20030;-76
2022/02/05 01:05:35;;;;;;;13.25;4.63;;;5.70;76.50;;;;;;5036080;28;20036;-76
2022/02/05 01:08:01;;;;;;;7.47;4.03;;;5.70;76.80;;;;;;5037474;28;20075;-76
2022/02/05 01:10:28;;;;;;;13.15;4.07;;;5.70;76.90;;;;;;5037925;28;20021;-76
2022/02/05 01:12:59;;;;;;;7.53;4.28;;;5.70;76.80;;;;;;5037914;28;20075;-76
2022/02/05 01:15:31;;;;;;;12.80;4.57;;;5.80;76.70;;;;;;5037846;28;20108;-75
2022/02/05 01:18:01;;;;;;;9.25;4.18;;;5.80;76.40;;;;;;5037766;28;20026;-76
2022/02/05 01:22:58;;;;;;;5.57;3.70;;;5.80;76.60;;;;;;5037504;28;20035;-76
2022/02/05 01:25:29;;;;;;;7.82;4.15;;;5.80;76.40;;;;;;5037569;28;20025;-75
2022/02/05 01:28:00;;;;;;;8.68;3.78;;;5.80;76.30;;;;;;5037643;28;20034;-76
2022/02/05 01:30:31;;;;;;;15.45;5.07;;;5.80;76.30;;;;;;5036159;28;20056;-76
2022/02/05 01:51:58;;;;;;;8.10;4.20;;;5.90;76.30;;;;;;5037061;28;20091;-75
2022/02/05 01:57:25;;;;;;;9.32;4.10;;;5.90;76.50;;;;;;5036742;28;20033;-76
2022/02/05 02:05:29;;;;;;;11.45;4.18;;;5.80;76.90;;;;;;5036965;28;20024;-76
2022/02/05 02:15:33;;;;;;;7.23;3.40;;;5.70;76.90;;;;;;5037029;28;20029;-76
2022/02/05 02:20:55;;;;;;;13.55;3.90;;;5.70;77.00;;;;;;5040912;28;20068;-76
2022/02/05 02:23:46;;;;;;;5.80;3.03;;;5.70;77.10;;;;;;5040959;28;20025;-76
2022/02/05 02:31:10;;;;;;;6.85;3.33;;;5.60;77.20;;;;;;5041211;28;20107;-76
2022/02/05 02:33:42;;;;;;;5.55;3.03;;;5.60;77.20;;;;;;5041012;28;20113;-76
2022/02/05 02:36:12;;;;;;;10.68;3.45;;;5.60;77.40;;;;;;5040882;28;20033;-76
2022/02/05 02:38:46;;;;;;;8.50;3.08;;;5.60;77.30;;;;;;5040680;28;20051;-76
2022/02/05 02:41:22;;;;;;;10.85;3.60;;;5.60;77.40;;;;;;5039185;28;20029;-76
2022/02/05 02:43:47;;;;;;;6.53;3.13;;;5.60;77.40;;;;;;5039187;28;20459;-76
2022/02/05 02:46:13;;;;;;;10.88;3.83;;;5.50;77.60;;;;;;5039292;28;20053;-76
2022/02/05 02:48:43;;;;;;;8.82;3.58;;;5.50;77.60;;;;;;5040565;28;20472;-76
2022/02/05 02:59:09;;;;;;;7.50;3.53;;;5.50;77.50;;;;;;5040135;28;20033;-76
2022/02/05 03:01:41;;;;;;;16.50;3.90;;;5.40;77.80;;;;;;5040182;28;20056;-75
2022/02/05 03:04:07;;;;;;;7.28;3.72;;;5.30;78.20;;;;;;5040544;28;20017;-76
2022/02/05 03:06:32;;;;;;;8.00;3.47;;;5.30;78.30;;;;;;5039132;28;20084;-76
2022/02/05 03:08:58;;;;;;;9.10;4.05;;;5.20;78.40;;;;;;5039860;28;20075;-75
2022/02/05 03:11:24;;;;;;;7.78;3.78;;;5.30;78.20;;;;;;5040186;28;20104;-76
2022/02/05 03:13:50;;;;;;;11.88;4.28;;;5.30;78.30;;;;;;5038712;28;20022;-75
2022/02/05 03:16:22;;;;;;;5.70;3.20;;;5.20;78.20;;;;;;5038676;28;20420;-76
2022/02/05 03:19:07;;;;;;;4.50;3.20;;;5.20;78.40;;;;;;5039918;28;20032;-76
2022/02/05 03:21:33;;;;;;;8.98;4.38;;;5.20;78.40;;;;;;5038386;28;20048;-76
2022/02/05 03:23:59;;;;;;;8.00;3.70;;;5.20;78.50;;;;;;5038558;28;20025;-76
2022/02/05 03:26:24;;;;;;;7.47;4.22;;;5.20;78.40;;;;;;5039800;28;20079;-76
2022/02/05 03:28:50;;;;;;;10.82;4.43;;;5.20;78.40;;;;;;5037703;28;20080;-76
2022/02/05 03:31:15;;;;;;;13.07;3.80;;;5.20;78.50;;;;;;5038375;28;20079;-76
2022/02/05 03:33:41;;;;;;;6.70;4.20;;;5.20;78.50;;;;;;5039992;28;20383;-76
2022/02/05 03:36:07;;;;;;;10.30;4.38;;;5.10;78.70;;;;;;5038266;28;20034;-75
2022/02/05 03:38:33;;;;;;;8.85;4.35;;;5.20;78.60;;;;;;5038202;28;20021;-76
2022/02/05 03:40:58;;;;;;;11.85;4.47;;;5.20;78.60;;;;;;5039609;28;20460;-76
2022/02/05 03:43:24;;;;;;;7.70;3.95;;;5.20;78.60;;;;;;5039790;28;20044;-76
2022/02/05 03:45:50;;;;;;;8.32;4.72;;;5.10;78.70;;;;;;5039586;28;20048;-76
2022/02/05 03:48:15;;;;;;;6.30;4.38;;;5.10;78.70;;;;;;5038150;28;20490;-76
2022/02/05 03:50:41;;;;;;;12.05;4.95;;;5.00;78.70;;;;;;5038086;28;20025;-76
2022/02/05 03:53:07;;;;;;;10.48;4.70;;;5.00;78.90;;;;;;5039275;28;20029;-76
2022/02/05 03:55:34;;;;;;;11.13;4.50;;;5.00;79.10;;;;;;5039336;28;20035;-76
2022/02/05 03:58:00;;;;;;;10.05;4.25;;;5.00;79.10;;;;;;5037913;28;20391;-76
2022/02/05 04:00:26;;;;;;;11.50;4.68;;;5.10;79.00;;;;;;5025979;28;20129;-76
2022/02/05 04:02:51;;;;;;;6.72;4.13;;;5.00;78.70;;;;;;5037776;28;20057;-76
2022/02/05 04:05:17;;;;;;;8.20;5.18;;;5.10;78.70;;;;;;5039046;28;20025;-76
2022/02/05 04:07:47;;;;;;;12.25;4.95;;;5.00;79.00;;;;;;5038950;28;20384;-76
2022/02/05 04:10:16;;;;;;;6.75;4.25;;;5.00;78.90;;;;;;5037805;28;20067;-76
2022/02/05 04:18:11;;;;;;;9.48;4.40;;;5.00;79.00;;;;;;5038907;28;20052;-76
2022/02/05 04:20:40;;;;;;;10.88;4.45;;;5.00;79.00;;;;;;5038618;28;20026;-76
2022/02/05 04:25:51;;;;;;;7.40;4.28;;;4.90;79.30;;;;;;5177047;27;20398;-77
2022/02/05 04:28:16;;;;;;;7.85;4.20;;;4.60;79.80;;;;;;5176859;27;20027;-76
2022/02/05 04:30:42;;;;;;;9.30;4.97;;;4.60;79.90;;;;;;5176713;27;20031;-76
2022/02/05 04:33:08;;;;;;;9.25;4.32;;;4.60;80.00;;;;;;5176846;27;20037;-77
2022/02/05 04:35:33;;;;;;;9.93;4.05;;;4.60;80.30;;;;;;5176709;27;20095;-76
2022/02/05 04:38:02;;;;;;;7.85;4.22;;;4.60;80.10;;;;;;5176867;27;20086;-78
2022/02/05 04:40:32;;;;;;;5.75;4.25;;;4.70;80.00;;;;;;5176767;27;20432;-76
2022/02/05 04:48:39;;;;;;;8.30;4.30;;;4.70;79.30;;;;;;5176903;27;20376;-78
2022/02/05 05:01:38;;;;;;;11.65;3.85;;;4.60;79.00;;;;;;5176535;27;20113;-78
2022/02/05 05:04:53;;;;;;;7.82;4.55;;;4.50;78.90;;;;;;5176405;27;20027;-79
2022/02/05 05:12:25;;;;;;;11.50;4.10;;;4.40;79.00;;;;;;5176621;27;20115;-82
2022/02/05 05:20:19;;;;;;;7.57;4.43;;;4.40;79.00;;;;;;5175992;27;20502;-77
2022/02/05 05:22:45;;;;;;;7.80;3.97;;;4.40;79.20;;;;;;5176039;27;20492;-76
2022/02/05 05:25:11;;;;;;;10.85;3.78;;;4.40;79.10;;;;;;5175921;27;20072;-77
2022/02/05 05:27:37;;;;;;;10.13;4.30;;;4.40;79.20;;;;;;5157641;27;20444;-76
2022/02/05 05:30:04;;;;;;;6.38;4.25;;;4.30;79.10;;;;;;5176059;27;20043;-76
2022/02/05 05:32:30;;;;;;;8.35;4.38;;;4.30;79.30;;;;;;5176153;27;20015;-76
2022/02/05 05:34:56;;;;;;;8.18;4.65;;;4.30;79.20;;;;;;5175793;27;20066;-76
2022/02/05 05:37:21;;;;;;;6.20;3.92;;;4.20;79.20;;;;;;5161317;27;20029;-76
2022/02/05 05:39:49;;;;;;;8.00;4.28;;;4.20;79.10;;;;;;5161878;27;20027;-76
2022/02/05 05:42:21;;;;;;;7.75;4.32;;;4.20;79.30;;;;;;5161977;27;20023;-76
2022/02/05 05:45:12;;;;;;;9.75;4.38;;;4.20;79.30;;;;;;5161776;27;20030;-76
2022/02/05 05:47:49;;;;;;;5.07;4.22;;;4.20;79.40;;;;;;5161286;27;20026;-76
2022/02/05 05:50:57;;;;;;;5.00;3.93;;;4.20;79.30;;;;;;5161773;27;20369;-77
2022/02/05 05:53:19;;;;;;;8.98;4.63;;;4.20;79.50;;;;;;5161249;27;20019;-76
2022/02/05 05:55:47;;;;;;;13.35;4.13;;;4.10;79.40;;;;;;5161672;27;20022;-76
2022/02/05 05:58:17;;;;;;;11.13;4.82;;;4.10;79.10;;;;;;5142990;27;20031;-76
2022/02/05 06:00:44;;;;;;;8.13;5.10;;;4.10;79.10;;;;;;5142798;27;20026;-77
2022/02/05 06:03:10;;;;;;;7.85;4.57;;;4.10;79.20;;;;;;5157021;27;20027;-76
2022/02/05 06:05:36;;;;;;;7.95;4.25;;;4.10;79.30;;;;;;5133227;27;20029;-77
2022/02/05 06:08:04;;;;;;;8.70;4.82;;;4.00;79.10;;;;;;5147415;27;20476;-76
2022/02/05 06:10:30;;;;;;;10.07;4.57;;;4.00;79.40;;;;;;5140436;27;20103;-76
2022/02/05 06:12:55;;;;;;;7.55;4.30;;;4.00;79.30;;;;;;5159015;27;20054;-76
2022/02/05 06:15:21;;;;;;;10.05;5.07;;;3.90;79.30;;;;;;5142755;27;20026;-76
2022/02/05 06:17:49;;;;;;;9.55;5.22;;;3.80;79.70;;;;;;5161055;27;20110;-76
2022/02/05 06:20:15;;;;;;;8.27;5.07;;;3.80;79.70;;;;;;5160827;27;20022;-76
2022/02/05 06:22:41;;;;;;;7.70;3.95;;;3.90;79.80;;;;;;5160909;27;20477;-76
2022/02/05 06:25:07;;;;;;;7.55;4.53;;;3.90;79.60;;;;;;5160647;27;20042;-76
2022/02/05 06:27:32;;;;;;;8.02;4.63;;;3.90;79.50;;;;;;5142351;27;20014;-77
2022/02/05 06:29:58;;;;;;;7.10;4.50;;;3.90;79.40;;;;;;5160687;27;20019;-76
2022/02/05 06:32:24;;;;;;;4.93;4.22;;;3.90;79.50;;;;;;5142167;27;20022;-77
2022/02/05 06:34:49;;;;;;;8.43;4.93;;;3.90;79.30;;;;;;5160609;27;20131;-76
2022/02/05 06:37:15;;;;;;;7.35;4.93;;;3.80;79.80;;;;;;5152768;27;20027;-76
2022/02/05 06:39:41;;;;;;;5.85;4.18;;;3.80;79.70;;;;;;5121597;27;20488;-76
2022/02/05 06:42:07;;;;;;;8.82;4.03;;;3.80;79.80;;;;;;5121525;27;20031;-76
2022/02/05 06:44:33;;;;;;;8.65;4.25;;;3.70;79.80;;;;;;5139763;27;20019;-76
2022/02/05 06:46:58;;;;;;;9.30;4.57;;;3.70;80.00;;;;;;5139339;27;20027;-77
2022/02/05 06:49:26;;;;;;;7.72;4.85;;;3.80;80.10;;;;;;5139156;27;20019;-76
2022/02/05 06:51:55;;;;;;;7.55;4.85;;;3.70;80.10;;;;;;5139797;27;20027;-77
2022/02/05 06:54:21;;;;;;;11.50;7.35;;;3.70;80.20;;;;;;5159153;27;20057;-77
2022/02/05 06:56:46;;;;;;;12.57;8.02;;;3.70;80.10;;;;;;5141680;27;20022;-76
2022/02/05 06:59:12;;;;;;;16.23;9.52;;;3.80;80.00;;;;;;5141536;27;20430;-76
2022/02/05 07:01:37;;;;;;;15.23;9.07;;;3.80;79.80;;;;;;5141750;27;20030;-77
2022/02/05 07:04:05;;;;;;;13.40;8.02;;;3.80;79.60;;;;;;5159951;27;20037;-76
2022/02/05 07:06:31;;;;;;;10.60;7.68;;;3.70;79.40;;;;;;5141471;27;20469;-76
2022/02/05 07:08:56;;;;;;;14.18;7.53;;;3.70;79.70;;;;;;5160050;27;20015;-76
2022/02/05 07:11:22;;;;;;;11.02;6.88;;;3.70;79.60;;;;;;5159849;27;20015;-77
2022/02/05 07:13:49;;;;;;;10.40;7.43;;;3.70;79.80;;;;;;5141324;27;20019;-76
2022/02/05 07:16:22;;;;;;;8.35;6.40;;;3.70;79.70;;;;;;5141534;27;20027;-76
2022/02/05 07:18:59;;;;;;;8.95;6.38;;;3.60;79.50;;;;;;5141072;27;20018;-76
2022/02/05 07:21:36;;;;;;;9.65;5.93;;;3.60;79.90;;;;;;5141059;27;20544;-77
2022/02/05 07:29:17;;;;;;;6.25;4.82;;;3.60;79.90;;;;;;5159460;27;20026;-76
2022/02/05 07:31:45;;;;;;;8.32;5.70;;;3.70;79.90;;;;;;5159741;27;20019;-77
2022/02/05 07:34:12;;;;;;;7.97;5.35;;;3.70;79.90;;;;;;5159527;27;20450;-77
2022/02/05 07:36:38;;;;;;;14.50;5.95;;;3.70;80.10;;;;;;5141033;27;20022;-76
2022/02/05 07:39:08;;;;;;;10.25;5.10;;;3.80;79.90;;;;;;5140767;27;20054;-76
2022/02/05 07:41:36;;;;;;;12.40;5.53;;;3.80;79.90;;;;;;5159619;27;20023;-76
2022/02/05 07:44:03;;;;;;;10.75;5.55;;;3.80;79.80;;;;;;5141033;27;20037;-76
2022/02/05 07:46:29;;;;;;;8.98;5.32;;;3.90;79.70;;;;;;5159437;27;20030;-76
2022/02/05 07:48:55;;;;;;;10.15;4.95;;;3.90;80.00;;;;;;5159202;27;20015;-76
2022/02/05 07:51:21;;;;;;;12.93;5.57;;;3.90;79.80;;;;;;5159405;27;20019;-76
2022/02/05 07:53:47;;;;;;;7.32;5.10;;;3.90;79.90;;;;;;5159041;27;20116;-76
2022/02/05 07:56:13;;;;;;;9.25;5.40;;;3.90;80.10;;;;;;5140726;27;20042;-76
2022/02/05 07:58:39;;;;;;;9.18;4.95;;;4.00;79.90;;;;;;5159108;27;20109;-77
2022/02/05 08:01:05;;;;;;;7.32;5.72;;;4.10;79.80;;;;;;5158891;27;20108;-76
2022/02/05 08:03:30;;;;;;;14.90;5.75;;;4.10;79.70;;;;;;5140353;27;20027;-76
2022/02/05 08:06:00;;;;;;;12.95;6.55;;;4.20;79.80;;;;;;5140355;27;20015;-76
2022/02/05 08:08:30;;;;;;;11.13;5.70;;;4.20;79.80;;;;;;5140615;27;20075;-76
2022/02/05 08:11:00;;;;;;;8.75;5.60;;;4.10;80.30;;;;;;5154755;27;20023;-76
2022/02/05 08:13:29;;;;;;;;;;;4.20;79.90;;;;;;5120150;28;20020;-76
2022/02/05 08:15:58;;;;;;;8.32;4.65;;;4.20;79.90;;;;;;5119629;27;19903;-76
2022/02/05 08:18:24;;;;;;;8.50;5.47;;;4.20;79.80;;;;;;5138269;27;20106;-76
2022/02/05 08:20:50;;;;;;;6.25;5.10;;;4.10;80.50;;;;;;5155938;27;20058;-76
2022/02/05 08:23:15;;;;;;;10.40;5.53;;;4.20;80.40;;;;;;5140086;27;20024;-76
2022/02/05 08:25:41;;;;;;;11.20;5.50;;;4.20;80.80;;;;;;5158448;27;20107;-73
2022/02/05 08:28:07;;;;;;;10.43;5.15;;;4.40;80.30;;;;;;5140115;27;20122;-76
2022/02/05 08:30:32;;;;;;;11.50;4.95;;;4.40;80.30;;;;;;5158665;27;20050;-76
2022/02/05 08:32:59;;;;;;;9.00;5.47;;;4.30;80.60;;;;;;5159053;27;20354;-76
2022/02/05 08:35:25;;;;;;;15.27;6.05;;;4.30;81.30;;;;;;5158713;27;20026;-76
2022/02/05 08:37:53;;;;;;;7.07;4.80;;;4.50;81.10;;;;;;5139949;27;20023;-76
2022/02/05 08:40:18;;;;;;;7.97;5.05;;;4.50;81.30;;;;;;5139980;27;20030;-76
2022/02/05 08:42:44;;;;;;;9.55;5.15;;;4.50;81.40;;;;;;5158819;27;20019;-76
2022/02/05 08:45:10;;;;;;;9.95;5.13;;;4.60;80.90;;;;;;5158462;27;20067;-77
2022/02/05 08:47:36;;;;;;;8.55;5.10;;;4.70;80.90;;;;;;5158897;27;20469;-77
2022/02/05 08:50:03;;;;;;;10.35;4.65;;;4.80;80.70;;;;;;5158718;27;20015;-77
2022/02/05 08:52:29;;;;;;;7.97;4.80;;;4.90;80.50;;;;;;5158632;27;20511;-76
2022/02/05 08:54:54;;;;;;;9.30;4.93;;;4.90;80.70;;;;;;5139680;27;20441;-76
2022/02/05 08:57:20;;;;;;;8.25;5.03;;;5.00;80.90;;;;;;5158670;27;20018;-76
2022/02/05 09:00:01;;;;;;;12.75;4.70;;;5.10;81.60;;;;;;5158317;27;20037;-76
2022/02/05 09:07:41;;;;;;;11.77;4.35;;;5.40;80.40;;;;;;5158553;27;20380;-77
2022/02/05 09:10:28;;;;;;;8.95;4.10;;;5.50;80.70;;;;;;5139593;27;20023;-76
2022/02/05 09:15:39;;;;;;;11.40;4.28;;;5.60;80.90;;;;;;5141698;27;20030;-76
2022/02/05 09:18:04;;;;;;;5.75;3.47;;;5.70;80.40;;;;;;5123025;27;20067;-76
2022/02/05 09:20:31;;;;;;;12.25;4.20;;;5.80;80.40;;;;;;5156396;27;20026;-76
2022/02/05 09:22:57;;;;;;;10.48;4.40;;;5.90;80.40;;;;;;5143512;27;20022;-77
2022/02/05 09:25:23;;;;;;;5.65;3.45;;;6.00;80.40;;;;;;5143124;27;20039;-76
2022/02/05 09:27:52;;;;;;;8.20;3.92;;;6.10;80.40;;;;;;5143794;27;20023;-77
2022/02/05 09:30:28;;;;;;;6.10;3.47;;;6.20;80.10;;;;;;5143418;27;20023;-76
2022/02/05 09:32:54;;;;;;;9.52;3.58;;;6.30;80.10;;;;;;5143311;27;20027;-74
2022/02/05 09:35:20;;;;;;;8.73;4.32;;;6.40;80.20;;;;;;5162046;27;20083;-74
2022/02/05 09:37:45;;;;;;;12.40;4.13;;;6.60;79.60;;;;;;5161852;27;20023;-74
2022/02/05 09:40:11;;;;;;;12.43;4.38;;;6.90;79.10;;;;;;5161769;27;20014;-77
2022/02/05 09:42:47;;;;;;;8.25;5.35;;;7.60;77.80;;;;;;5161983;27;20086;-74
2022/02/05 09:45:14;;;;;;;10.25;6.45;;;8.60;75.20;;;;;;5160524;27;20125;-74
2022/02/05 09:47:40;;;;;;;8.75;6.15;;;9.60;71.70;;;;;;5161477;27;20048;-74
2022/02/05 09:50:07;;;;;;;6.38;5.55;;;10.50;68.70;;;;;;5161617;27;20034;-74
2022/02/05 09:52:32;;;;;;;6.40;5.32;;;11.30;66.90;;;;;;5161613;27;20014;-74
2022/02/05 09:54:58;;;;;;;8.65;5.88;;;11.80;64.60;;;;;;5143063;27;20540;-75
2022/02/05 09:57:24;;;;;;;7.90;4.60;;;12.40;62.50;;;;;;5161461;27;20039;-74
2022/02/05 09:59:56;;;;;;;7.63;4.75;;;12.70;61.10;;;;;;5161474;27;20019;-74
2022/02/05 10:02:33;;;;;;;8.00;4.63;;;12.70;62.10;;;;;;5142542;27;20461;-75
2022/02/05 10:05:06;;;;;;;8.48;3.92;;;12.50;61.00;;;;;;5161322;27;20050;-74
2022/02/05 10:07:36;;;;;;;6.13;3.88;;;12.60;61.60;;;;;;5161463;27;20015;-74
2022/02/05 10:10:05;;;;;;;9.68;4.25;;;12.50;61.50;;;;;;5161329;27;20051;-74
2022/02/05 10:12:31;;;;;;;9.80;3.10;;;12.30;62.80;;;;;;5143360;27;20497;-74
2022/02/05 10:15:00;;;;;;;7.07;2.50;;;11.80;62.50;;;;;;5122274;27;20031;-75
2022/02/05 10:17:45;;;;;;;5.57;2.92;;;11.40;64.30;;;;;;5140184;27;20090;-75
2022/02/05 10:20:13;;;;;;;9.77;2.80;;;11.10;66.30;;;;;;5152483;27;20095;-74
2022/02/05 10:22:41;;;;;;;7.50;2.38;;;10.80;67.40;;;;;;5160801;27;20086;-74
2022/02/05 10:25:19;;;;;;;7.97;2.83;;;10.40;68.60;;;;;;5160708;27;20042;-74
2022/02/05 10:27:47;;;;;;;8.63;2.83;;;10.20;69.70;;;;;;5160732;27;20064;-74
2022/02/05 10:30:27;;;;;;;9.52;3.38;;;9.90;70.80;;;;;;5160949;27;20388;-74
2022/02/05 10:33:19;;;;;;;9.38;3.08;;;9.70;71.70;;;;;;5161014;27;20019;-74
2022/02/05 10:35:57;;;;;;;9.50;4.50;;;9.60;72.20;;;;;;5160764;27;20549;-74
2022/02/05 10:43:56;;;;;;;6.47;3.03;;;9.60;72.90;;;;;;5140026;27;20108;-74
2022/02/05 10:46:42;;;;;;;8.45;3.17;;;9.60;73.30;;;;;;5139726;27;20019;-74
2022/02/05 10:49:12;;;;;;;12.65;3.80;;;9.60;72.60;;;;;;5139882;27;20023;-74
2022/02/05 10:51:46;;;;;;;8.60;3.50;;;9.70;73.10;;;;;;5139866;27;20047;-74
2022/02/05 10:54:27;;;;;;;4.93;3.05;;;9.70;73.70;;;;;;5139649;27;20031;-74
2022/02/05 10:56:59;;;;;;;9.10;3.80;;;9.80;73.50;;;;;;5121180;27;20062;-74
2022/02/05 10:59:48;;;;;;;7.68;3.80;;;9.80;73.10;;;;;;5139750;27;20062;-74
2022/02/05 11:05:15;;;;;;;11.20;4.32;;;10.00;73.20;;;;;;5139351;27;20103;-74
2022/02/05 11:07:42;;;;;;;9.85;4.43;;;10.00;72.70;;;;;;5120675;27;20064;-76
2022/02/05 11:10:10;;;;;;;14.65;4.28;;;10.10;72.60;;;;;;5120874;27;20114;-74
2022/02/05 11:20:30;;;;;;;11.13;4.05;;;10.30;72.60;;;;;;5159921;27;20038;-74
2022/02/05 11:23:10;;;;;;;10.77;3.25;;;10.30;72.70;;;;;;5159497;27;20018;-74
2022/02/05 11:25:38;;;;;;;11.98;3.45;;;10.30;72.70;;;;;;5159620;27;20087;-74
2022/02/05 11:28:05;;;;;;;8.38;2.90;;;10.40;72.40;;;;;;5159551;27;20033;-74
2022/02/05 11:30:35;;;;;;;7.50;2.80;;;10.40;72.70;;;;;;5159859;27;20023;-74
2022/02/05 11:33:18;;;;;;;8.27;2.65;;;10.50;71.70;;;;;;5140762;27;20023;-74
2022/02/05 11:38:30;;;;;;;4.45;2.83;;;10.60;71.90;;;;;;5159308;27;20061;-76
2022/02/05 11:40:57;;;;;;;6.32;2.50;;;10.60;71.30;;;;;;5138811;27;20045;-76
2022/02/05 11:43:27;;;;;;;10.57;2.33;;;10.60;71.10;;;;;;5138576;27;20473;-77
2022/02/05 11:46:17;;;;;;;10.73;2.72;;;10.70;71.90;;;;;;5120151;27;20097;-76
2022/02/05 11:48:56;;;;;;;6.22;2.10;;;10.70;71.10;;;;;;5120236;27;20042;-77
2022/02/05 11:51:21;;;;;;;7.57;2.10;;;10.80;70.40;;;;;;5138547;27;20034;-77
2022/02/05 11:53:57;;;;;;;8.40;2.42;;;10.80;71.10;;;;;;5120071;27;20023;-77
2022/02/05 11:56:49;;;;;;;8.95;2.42;;;10.90;70.60;;;;;;5120028;27;20020;-77
2022/02/05 11:59:33;;;;;;;6.78;2.05;;;10.90;70.90;;;;;;5138526;27;20078;-76
2022/02/05 12:02:38;;;;;;;8.82;2.72;;;10.90;70.10;;;;;;5138413;27;20018;-77
2022/02/05 12:05:18;;;;;;;10.88;2.85;;;11.00;70.60;;;;;;5128833;27;20042;-74
2022/02/05 12:08:06;;;;;;;8.30;2.08;;;11.10;71.10;;;;;;5138141;27;20102;-74
2022/02/05 12:10:38;;;;;;;11.77;2.58;;;11.10;69.80;;;;;;5120265;27;20059;-74
2022/02/05 12:13:24;;;;;;;8.68;2.13;;;11.20;70.50;;;;;;5140143;27;20015;-74
2022/02/05 12:15:59;;;;;;;6.88;2.22;;;11.10;70.10;;;;;;5159108;27;20037;-74
2022/02/05 12:18:33;;;;;;;6.82;2.05;;;10.90;70.30;;;;;;5159019;27;20026;-74
2022/02/05 12:26:13;;;;;;;7.57;1.50;;;11.00;69.80;;;;;;5159028;27;20065;-74
2022/02/05 12:28:44;;;;;;;7.18;1.60;;;11.00;69.20;;;;;;5139987;27;20030;-74
2022/02/05 12:31:20;;;;;;;5.35;1.67;;;11.10;68.20;;;;;;5140153;27;20052;-74
2022/02/05 12:33:47;;;;;;;9.75;1.88;;;11.20;66.80;;;;;;5158507;27;20026;-76
2022/02/05 12:36:36;;;;;;;7.63;1.42;;;11.10;67.20;;;;;;5158831;27;20015;-77
2022/02/05 12:39:08;;;;;;;6.53;1.50;;;10.80;68.10;;;;;;5143111;27;20027;-74
2022/02/05 12:41:35;;;;;;;8.90;2.28;;;10.60;67.90;;;;;;5158884;27;20018;-76
2022/02/05 12:44:04;;;;;;;4.85;1.50;;;10.70;67.80;;;;;;5139886;27;20022;-76
2022/02/05 12:46:35;;;;;;;6.53;1.63;;;11.00;68.00;;;;;;5160776;27;20060;-77
2022/02/05 12:49:05;;;;;;;5.35;1.50;;;11.00;67.10;;;;;;5144049;27;20023;-77
2022/02/05 12:51:31;;;;;;;3.22;1.55;;;11.10;67.50;;;;;;5144218;27;20051;-77
2022/02/05 12:54:28;;;;;;;11.48;2.30;;;11.20;67.60;;;;;;5162564;27;20046;-74
2022/02/05 12:56:59;;;;;;;7.13;1.38;;;11.40;67.20;;;;;;5127722;27;20037;-76
2022/02/05 12:59:36;;;;;;;7.60;1.50;;;11.70;65.30;;;;;;5162366;27;20425;-77
2022/02/05 13:02:05;;;;;;;9.68;1.90;;;11.70;64.50;;;;;;5162706;27;20375;-76
2022/02/05 13:04:32;;;;;;;4.35;1.20;;;11.80;65.00;;;;;;5162272;27;20030;-74
2022/02/05 13:07:18;;;;;;;5.40;1.58;;;11.90;64.50;;;;;;5143708;27;20019;-74
2022/02/05 13:10:00;;;;;;;5.88;1.70;;;12.00;63.20;;;;;;5162518;27;20019;-76
2022/02/05 13:12:35;;;;;;;7.78;1.42;;;12.20;62.20;;;;;;5126749;27;20015;-74
2022/02/05 13:15:17;;;;;;;8.23;1.35;;;12.30;62.10;;;;;;5123192;27;20077;-74
2022/02/05 13:18:04;;;;;;;9.98;1.52;;;12.40;63.10;;;;;;5141553;27;20019;-74
2022/02/05 13:26:04;;;;;;;6.70;1.40;;;12.70;62.50;;;;;;5161747;27;20085;-74
2022/02/05 13:36:48;;;;;;;6.55;1.75;;;12.60;60.50;;;;;;5161989;27;20491;-74
2022/02/05 13:42:09;;;;;;;5.57;1.70;;;12.60;61.00;;;;;;5161984;27;20035;-75
2022/02/05 13:45:03;;;;;;;5.68;1.83;;;12.60;60.80;;;;;;5161790;27;20106;-75
2022/02/05 13:47:35;;;;;;;4.78;1.65;;;12.70;60.70;;;;;;5161680;27;20567;-74
2022/02/05 13:50:12;;;;;;;5.70;1.77;;;12.80;60.90;;;;;;5161827;27;20047;-74
2022/02/05 13:52:37;;;;;;;9.70;1.83;;;12.80;60.70;;;;;;5161607;27;20102;-74
2022/02/05 13:55:23;;;;;;;3.88;1.35;;;12.80;60.70;;;;;;5142951;27;20043;-74
2022/02/05 13:57:56;;;;;;;3.58;1.65;;;12.80;60.50;;;;;;5160932;27;20102;-74
2022/02/05 14:00:22;;;;;;;4.18;1.83;;;12.80;60.80;;;;;;5161521;27;20106;-76
2022/02/05 14:02:59;;;;;;;7.53;2.05;;;12.70;60.90;;;;;;5142837;27;20026;-76
2022/02/05 14:05:25;;;;;;;4.10;1.50;;;12.60;61.40;;;;;;5161309;27;20019;-76
2022/02/05 14:07:51;;;;;;;8.30;2.42;;;12.60;61.60;;;;;;5142549;27;20026;-77
2022/02/05 14:10:19;;;;;;;6.07;1.90;;;12.40;61.50;;;;;;5142792;27;20019;-76
2022/02/05 14:12:52;;;;;;;8.15;1.95;;;12.30;61.70;;;;;;5122932;27;20019;-75
2022/02/05 14:15:19;;;;;;;7.03;1.70;;;12.30;61.90;;;;;;5121895;27;20028;-76
2022/02/05 14:17:48;;;;;;;4.40;1.42;;;12.40;60.80;;;;;;5140387;27;20034;-74
2022/02/05 14:20:16;;;;;;;8.30;1.63;;;12.50;60.90;;;;;;5152738;27;20063;-74
2022/02/05 14:22:47;;;;;;;4.30;1.73;;;12.60;60.50;;;;;;5161195;27;20026;-74
2022/02/05 14:25:30;;;;;;;7.20;1.80;;;12.70;60.50;;;;;;5160588;27;20031;-76
2022/02/05 14:28:25;;;;;;;6.60;1.42;;;12.80;59.50;;;;;;5161037;27;20111;-74
2022/02/05 14:34:20;;;;;;;5.65;1.65;;;12.80;59.70;;;;;;5160923;27;20044;-77
2022/02/05 14:42:19;;;;;;;11.18;1.88;;;12.50;59.80;;;;;;5160881;27;20140;-76
2022/02/05 14:44:46;;;;;;;5.80;1.85;;;12.40;59.40;;;;;;5160499;27;20388;-74
2022/02/05 14:47:12;;;;;;;5.55;1.40;;;12.40;60.50;;;;;;5142009;27;20106;-74
2022/02/05 14:49:42;;;;;;;7.18;1.75;;;12.50;59.40;;;;;;5160551;27;20627;-74
2022/02/05 14:52:13;;;;;;;5.07;1.33;;;12.40;58.70;;;;;;5160448;27;20014;-76
2022/02/05 14:54:39;;;;;;;4.40;1.38;;;12.30;59.30;;;;;;5160259;27;20148;-74
2022/02/05 14:57:05;;;;;;;7.07;1.73;;;12.20;60.00;;;;;;5160282;27;20050;-76
2022/02/05 14:59:32;;;;;;;12.00;2.75;;;12.20;59.30;;;;;;5160230;27;20030;-75
2022/02/05 15:01:57;;;;;;;10.57;3.08;;;12.00;59.40;;;;;;5141857;27;20048;-74
2022/02/05 15:04:23;;;;;;;9.68;2.13;;;11.90;59.60;;;;;;5160067;27;20027;-74
2022/02/05 15:06:49;;;;;;;5.00;1.58;;;11.80;60.20;;;;;;5160324;27;20022;-74
2022/02/05 15:09:17;;;;;;;7.35;1.52;;;12.00;60.10;;;;;;5159046;27;20030;-74
2022/02/05 15:11:42;;;;;;;7.15;1.95;;;12.20;60.50;;;;;;5149400;27;20481;-76
2022/02/05 15:14:08;;;;;;;4.03;1.35;;;12.40;59.20;;;;;;5139052;27;20087;-75
2022/02/05 15:16:35;;;;;;;7.50;1.90;;;12.60;59.30;;;;;;5139393;27;20057;-74
2022/02/05 15:19:03;;;;;;;3.63;1.38;;;12.60;59.40;;;;;;5141354;27;20019;-74
2022/02/05 15:21:31;;;;;;;7.68;1.80;;;12.50;58.60;;;;;;5159963;27;20413;-74
2022/02/05 15:23:58;;;;;;;5.55;1.63;;;12.50;58.70;;;;;;5159531;27;20047;-74
2022/02/05 15:26:27;;;;;;;8.30;1.67;;;12.30;59.00;;;;;;5159659;27;20019;-77
2022/02/05 15:28:53;;;;;;;3.78;1.20;;;12.20;59.00;;;;;;5159688;27;20019;-74
2022/02/05 15:31:19;;;;;;;6.63;1.70;;;12.10;59.50;;;;;;5158868;27;20091;-75
2022/02/05 15:33:48;;;;;;;9.95;1.95;;;11.80;59.40;;;;;;5140620;27;20054;-74
2022/02/05 15:36:25;;;;;;;4.82;1.58;;;11.70;60.40;;;;;;5159781;27;20036;-74
2022/02/05 15:44:07;;;;;;;7.15;1.77;;;11.50;62.10;;;;;;5159312;27;20572;-77
2022/02/05 15:46:33;;;;;;;4.78;1.50;;;11.30;62.10;;;;;;5159497;27;20022;-76
2022/02/05 15:48:59;;;;;;;3.85;1.30;;;11.30;62.40;;;;;;5159096;27;20023;-77
2022/02/05 15:51:29;;;;;;;4.90;1.40;;;11.30;62.50;;;;;;5140550;27;20395;-76
2022/02/05 15:53:59;;;;;;;6.78;1.90;;;11.40;63.10;;;;;;5159481;27;20569;-77
2022/02/05 15:58:59;;;;;;;3.65;1.83;;;11.40;63.40;;;;;;5159361;27;20096;-75
2022/02/05 16:01:25;;;;;;;4.97;1.90;;;11.40;63.40;;;;;;5159283;27;20098;-74
2022/02/05 16:03:51;;;;;;;8.45;2.00;;;11.40;63.20;;;;;;5159356;27;20047;-74
2022/02/05 16:06:17;;;;;;;4.35;1.70;;;11.40;63.80;;;;;;5158922;27;20019;-76
2022/02/05 16:08:43;;;;;;;6.72;1.55;;;11.40;63.70;;;;;;5140497;27;20075;-77
2022/02/05 16:11:08;;;;;;;5.93;1.73;;;11.30;63.70;;;;;;5134457;27;20023;-76
2022/02/05 16:13:34;;;;;;;3.53;1.60;;;11.20;63.60;;;;;;5120293;27;20118;-76
2022/02/05 16:16:00;;;;;;;5.30;1.70;;;11.20;64.50;;;;;;5138362;27;20027;-76